createdAt,value
2018-05-13T00:01:00.622Z,11.76
2018-05-13T00:03:27.346Z,11.59
2018-05-13T00:05:53.981Z,11.73
2018-05-13T00:08:24.476Z,11.87
2018-05-13T00:10:51.100Z,11.81
2018-05-13T00:13:17.684Z,11.88
2018-05-13T00:15:44.485Z,11.97
2018-05-13T00:18:12.268Z,12.02
2018-05-13T00:20:38.846Z,12.12
2018-05-13T00:23:05.690Z,11.88
2018-05-13T00:25:32.892Z,11.97
2018-05-13T00:27:59.782Z,11.81
2018-05-13T00:30:26.416Z,11.96
2018-05-13T00:32:52.924Z,11.89
2018-05-13T00:35:19.559Z,11.88
2018-05-13T00:37:51.453Z,11.69
2018-05-13T00:40:18.425Z,11.88
2018-05-13T00:42:45.216Z,12.13
2018-05-13T00:45:11.882Z,12.35
2018-05-13T00:47:39.618Z,12.19
2018-05-13T00:50:06.356Z,11.76
2018-05-13T00:52:33.132Z,12.18
2018-05-13T00:54:59.701Z,12.54
2018-05-13T00:57:27.896Z,11.89
2018-05-13T00:59:54.487Z,11.82
2018-05-13T01:02:21.242Z,11.86
2018-05-13T01:04:47.946Z,11.58
2018-05-13T01:07:18.511Z,11.66
2018-05-13T01:09:45.267Z,11.55
2018-05-13T01:12:11.926Z,11.44
2018-05-13T01:14:38.532Z,11.47
2018-05-13T01:17:06.381Z,11.58
2018-05-13T01:19:33.121Z,11.22
2018-05-13T01:21:59.861Z,11.25
2018-05-13T01:24:26.434Z,11.37
2018-05-13T01:26:57.257Z,11.14
2018-05-13T01:29:24.361Z,11.00
2018-05-13T01:31:51.005Z,10.93
2018-05-13T01:34:17.536Z,10.79
2018-05-13T01:36:50.666Z,11.07
2018-05-13T01:39:17.684Z,11.26
2018-05-13T01:41:44.576Z,11.34
2018-05-13T01:44:11.147Z,11.47
2018-05-13T01:46:41.653Z,11.39
2018-05-13T01:49:08.376Z,11.30
2018-05-13T01:51:35.139Z,11.27
2018-05-13T01:54:01.892Z,11.04
2018-05-13T01:56:32.182Z,10.98
2018-05-13T01:58:59.076Z,11.13
2018-05-13T02:01:25.632Z,10.63
2018-05-13T02:03:52.234Z,10.86
2018-05-13T02:06:22.993Z,10.71
2018-05-13T02:08:49.644Z,10.64
2018-05-13T02:11:16.304Z,10.24
2018-05-13T02:13:43.038Z,10.32
2018-05-13T02:16:09.594Z,10.35
2018-05-13T02:18:36.319Z,10.62
2018-05-13T02:21:02.954Z,10.43
2018-05-13T02:23:29.532Z,10.34
2018-05-13T02:25:56.214Z,10.51
2018-05-13T02:28:22.932Z,10.78
2018-05-13T02:30:49.671Z,10.67
2018-05-13T02:33:16.343Z,10.85
2018-05-13T02:35:43.056Z,10.50
2018-05-13T02:38:16.034Z,10.06
2018-05-13T02:40:42.730Z,10.02
2018-05-13T02:43:09.428Z,10.14
2018-05-13T02:45:36.259Z,10.50
2018-05-13T02:48:07.653Z,10.48
2018-05-13T02:50:34.324Z,10.72
2018-05-13T02:53:00.988Z,10.83
2018-05-13T02:55:27.644Z,10.76
2018-05-13T02:57:55.448Z,10.68
2018-05-13T03:00:22.453Z,10.83
2018-05-13T03:02:49.076Z,10.95
2018-05-13T03:05:15.638Z,10.61
2018-05-13T03:07:45.471Z,10.37
2018-05-13T03:10:12.119Z,10.52
2018-05-13T03:12:38.753Z,10.51
2018-05-13T03:15:05.468Z,10.51
2018-05-13T03:17:35.901Z,10.63
2018-05-13T03:20:02.572Z,10.54
2018-05-13T03:22:29.308Z,10.62
2018-05-13T03:24:56.004Z,10.60
2018-05-13T03:27:26.052Z,10.40
2018-05-13T03:29:52.826Z,10.38
2018-05-13T03:32:19.514Z,10.44
2018-05-13T03:34:46.337Z,10.82
2018-05-13T03:37:16.584Z,10.91
2018-05-13T03:39:49.132Z,11.05
2018-05-13T03:42:15.890Z,10.91
2018-05-13T03:44:42.600Z,11.08
2018-05-13T03:47:16.372Z,11.29
2018-05-13T03:49:43.071Z,11.16
2018-05-13T03:52:09.772Z,11.21
2018-05-13T03:54:36.766Z,11.37
2018-05-13T03:57:06.635Z,11.28
2018-05-13T03:59:33.205Z,11.49
2018-05-13T04:02:00.158Z,11.83
2018-05-13T04:04:27.225Z,11.91
2018-05-13T04:06:57.343Z,12.07
2018-05-13T04:09:35.843Z,12.18
2018-05-13T04:12:14.400Z,12.46
2018-05-13T04:14:52.944Z,12.51
2018-05-13T04:17:25.614Z,12.77
2018-05-13T04:19:52.904Z,12.90
2018-05-13T04:22:19.600Z,12.95
2018-05-13T04:24:46.292Z,13.12
2018-05-13T04:27:13.894Z,13.25
2018-05-13T04:29:41.048Z,13.35
2018-05-13T04:32:07.831Z,13.43
2018-05-13T04:34:34.452Z,13.72
2018-05-13T04:37:05.105Z,13.85
2018-05-13T04:39:31.967Z,13.71
2018-05-13T04:41:58.642Z,14.12
2018-05-13T04:44:25.605Z,13.88
2018-05-13T04:46:56.148Z,14.04
2018-05-13T04:49:22.784Z,13.80
2018-05-13T04:51:49.405Z,14.11
2018-05-13T04:54:16.442Z,14.00
2018-05-13T04:56:50.492Z,14.03
2018-05-13T04:59:17.503Z,14.00
2018-05-13T05:01:44.263Z,13.90
2018-05-13T05:04:11.656Z,14.21
2018-05-13T05:06:48.485Z,14.06
2018-05-13T05:09:15.400Z,13.61
2018-05-13T05:11:41.927Z,14.27
2018-05-13T05:14:08.492Z,14.32
2018-05-13T05:16:38.758Z,14.33
2018-05-13T05:19:06.116Z,14.39
2018-05-13T05:21:32.661Z,14.62
2018-05-13T05:23:59.864Z,14.55
2018-05-13T05:26:28.242Z,15.00
2018-05-13T05:28:54.920Z,15.08
2018-05-13T05:31:21.581Z,14.98
2018-05-13T05:33:48.092Z,14.87
2018-05-13T05:36:20.873Z,14.99
2018-05-13T05:38:47.500Z,15.42
2018-05-13T05:41:14.311Z,15.64
2018-05-13T05:43:40.937Z,15.80
2018-05-13T05:46:09.187Z,16.08
2018-05-13T05:48:36.483Z,16.20
2018-05-13T05:51:03.186Z,16.08
2018-05-13T05:53:29.921Z,16.08
2018-05-13T05:55:59.977Z,16.80
2018-05-13T05:58:26.607Z,16.18
2018-05-13T06:00:53.236Z,16.28
2018-05-13T06:03:20.010Z,16.39
2018-05-13T06:05:46.730Z,16.43
2018-05-13T06:08:13.253Z,17.39
2018-05-13T06:10:39.881Z,17.30
2018-05-13T06:13:06.600Z,17.00
2018-05-13T06:15:36.782Z,17.36
2018-05-13T06:18:03.437Z,17.74
2018-05-13T06:20:30.156Z,17.45
2018-05-13T06:22:56.794Z,17.89
2018-05-13T06:25:23.418Z,17.05
2018-05-13T06:27:50.158Z,18.15
2018-05-13T06:30:16.799Z,17.62
2018-05-13T06:32:43.491Z,17.50
2018-05-13T06:35:10.086Z,17.70
2018-05-13T06:37:40.122Z,18.32
2018-05-13T06:40:06.668Z,18.30
2018-05-13T06:42:33.801Z,18.48
2018-05-13T06:45:00.537Z,18.47
2018-05-13T06:47:37.410Z,18.89
2018-05-13T06:50:04.353Z,18.66
2018-05-13T06:52:31.832Z,19.05
2018-05-13T06:54:58.404Z,19.42
2018-05-13T06:57:28.778Z,19.06
2018-05-13T06:59:55.400Z,19.18
2018-05-13T07:02:21.954Z,19.22
2018-05-13T07:04:48.459Z,19.09
2018-05-13T07:07:25.955Z,19.08
2018-05-13T07:09:52.625Z,19.62
2018-05-13T07:12:19.348Z,19.97
2018-05-13T07:14:46.038Z,19.64
2018-05-13T07:17:13.044Z,20.43
2018-05-13T07:19:39.695Z,20.37
2018-05-13T07:22:06.326Z,20.47
2018-05-13T07:24:34.283Z,20.30
2018-05-13T07:27:02.076Z,20.71
2018-05-13T07:29:28.726Z,20.72
2018-05-13T07:31:55.389Z,21.12
2018-05-13T07:34:22.196Z,20.59
2018-05-13T07:36:52.440Z,21.28
2018-05-13T07:39:18.997Z,21.50
2018-05-13T07:41:45.880Z,21.68
2018-05-13T07:44:12.999Z,21.03
2018-05-13T07:46:43.092Z,20.25
2018-05-13T07:49:09.927Z,20.97
2018-05-13T07:51:36.634Z,21.21
2018-05-13T07:54:03.479Z,20.62
2018-05-13T07:56:34.075Z,21.00
2018-05-13T07:59:01.116Z,21.26
2018-05-13T08:01:28.859Z,21.01
2018-05-13T08:03:55.544Z,20.78
2018-05-13T08:06:23.506Z,20.31
2018-05-13T08:08:50.329Z,21.80
2018-05-13T08:11:17.356Z,21.74
2018-05-13T08:16:43.911Z,21.71
2018-05-13T08:19:10.954Z,22.07
2018-05-13T08:21:38.152Z,21.04
2018-05-13T08:24:04.788Z,20.93
2018-05-13T08:26:31.579Z,22.00
2018-05-13T08:28:58.161Z,23.10
2018-05-13T08:31:25.166Z,22.77
2018-05-13T08:33:52.151Z,22.53
2018-05-13T08:36:18.901Z,21.91
2018-05-13T08:38:45.799Z,22.15
2018-05-13T08:41:12.371Z,21.54
2018-05-13T08:43:42.631Z,22.22
2018-05-13T08:46:09.314Z,22.31
2018-05-13T08:48:35.988Z,22.64
2018-05-13T08:51:02.708Z,21.82
2018-05-13T08:53:39.397Z,22.24
2018-05-13T08:56:06.181Z,22.37
2018-05-13T08:58:33.001Z,22.91
2018-05-13T09:00:59.828Z,23.32
2018-05-13T09:03:27.630Z,23.66
2018-05-13T09:05:54.303Z,23.41
2018-05-13T09:08:20.982Z,24.64
2018-05-13T09:10:47.829Z,22.09
2018-05-13T09:13:18.306Z,23.54
2018-05-13T09:15:46.027Z,23.03
2018-05-13T09:18:12.707Z,22.69
2018-05-13T09:20:39.376Z,22.33
2018-05-13T09:23:06.121Z,23.75
2018-05-13T09:25:32.709Z,23.34
2018-05-13T09:28:00.001Z,22.10
2018-05-13T09:30:26.969Z,21.54
2018-05-13T09:32:57.259Z,21.47
2018-05-13T09:35:23.894Z,21.64
2018-05-13T09:37:50.888Z,21.44
2018-05-13T09:40:17.532Z,21.68
2018-05-13T09:42:47.805Z,21.45
2018-05-13T09:45:14.531Z,21.90
2018-05-13T09:47:41.170Z,22.06
2018-05-13T09:50:07.727Z,23.56
2018-05-13T09:52:34.559Z,25.05
2018-05-13T09:55:01.251Z,25.56
2018-05-13T09:57:27.925Z,24.65
2018-05-13T09:59:54.961Z,25.16
2018-05-13T10:02:22.934Z,26.27
2018-05-13T10:04:49.633Z,25.72
2018-05-13T10:07:16.744Z,24.29
2018-05-13T10:09:43.488Z,23.29
2018-05-13T10:12:10.329Z,22.95
2018-05-13T10:14:37.203Z,23.06
2018-05-13T10:17:03.819Z,23.63
2018-05-13T10:19:30.767Z,24.52
2018-05-13T10:22:00.657Z,26.01
2018-05-13T10:24:27.709Z,26.03
2018-05-13T10:26:54.342Z,26.50
2018-05-13T10:29:21.112Z,25.60
2018-05-13T10:31:51.302Z,24.69
2018-05-13T10:34:18.000Z,23.92
2018-05-13T10:36:45.222Z,24.22
2018-05-13T10:39:11.929Z,25.35
2018-05-13T10:41:42.944Z,25.39
2018-05-13T10:44:09.489Z,25.50
2018-05-13T10:46:36.164Z,24.80
2018-05-13T10:49:02.697Z,25.64
2018-05-13T10:51:33.026Z,26.36
2018-05-13T10:53:59.760Z,27.18
2018-05-13T10:59:42.107Z,26.45
2018-05-13T11:02:09.607Z,25.79
2018-05-13T11:04:36.209Z,24.71
2018-05-13T11:07:03.032Z,25.86
2018-05-13T11:09:29.741Z,25.08
2018-05-13T11:11:56.359Z,25.39
2018-05-13T11:14:23.143Z,25.05
2018-05-13T11:16:53.793Z,25.00
2018-05-13T11:19:20.442Z,25.85
2018-05-13T11:21:47.129Z,24.59
2018-05-13T11:24:13.765Z,24.31
2018-05-13T11:26:40.461Z,24.85
2018-05-13T11:29:07.273Z,27.53
2018-05-13T11:31:33.792Z,26.82
2018-05-13T11:34:01.206Z,25.89
2018-05-13T11:36:32.469Z,26.58
2018-05-13T11:38:59.115Z,25.73
2018-05-13T11:41:25.764Z,27.16
2018-05-13T11:43:52.458Z,28.99
2018-05-13T11:46:19.240Z,28.13
2018-05-13T11:48:46.135Z,26.50
2018-05-13T11:51:12.863Z,25.47
2018-05-13T11:53:39.559Z,25.52
2018-05-13T11:56:06.161Z,26.86
2018-05-13T11:58:33.193Z,27.36
2018-05-13T12:01:04.000Z,27.68
2018-05-13T12:03:30.638Z,26.41
2018-05-13T12:06:00.522Z,26.24
2018-05-13T12:08:27.441Z,28.13
2018-05-13T12:10:54.076Z,27.17
2018-05-13T12:13:20.685Z,27.29
2018-05-13T12:15:51.750Z,26.33
2018-05-13T12:18:18.469Z,26.07
2018-05-13T12:20:45.713Z,25.53
2018-05-13T12:23:12.777Z,25.90
2018-05-13T12:25:39.509Z,25.89
2018-05-13T12:28:06.564Z,24.72
2018-05-13T12:30:33.163Z,25.68
2018-05-13T12:32:59.907Z,26.10
2018-05-13T12:35:26.861Z,27.25
2018-05-13T12:38:00.390Z,26.44
2018-05-13T12:40:27.249Z,26.07
2018-05-13T12:42:53.941Z,26.61
2018-05-13T12:45:20.805Z,26.81
2018-05-13T12:47:50.864Z,26.47
2018-05-13T12:50:18.195Z,26.81
2018-05-13T12:52:44.761Z,26.43
2018-05-13T12:55:12.406Z,27.72
2018-05-13T12:57:42.919Z,26.16
2018-05-13T13:00:09.901Z,26.44
2018-05-13T13:02:36.853Z,26.51
2018-05-13T13:05:03.529Z,26.37
2018-05-13T13:07:30.453Z,26.57
2018-05-13T13:09:57.436Z,26.71
2018-05-13T13:12:23.959Z,27.85
2018-05-13T13:14:50.576Z,26.95
2018-05-13T13:17:17.412Z,26.12
2018-05-13T13:19:43.907Z,25.53
2018-05-13T13:22:11.131Z,26.66
2018-05-13T13:24:37.773Z,26.43
2018-05-13T13:27:04.729Z,26.36
2018-05-13T13:29:31.580Z,25.92
2018-05-13T13:31:58.084Z,26.66
2018-05-13T13:34:24.792Z,26.65
2018-05-13T13:36:51.618Z,26.35
2018-05-13T13:39:19.694Z,26.54
2018-05-13T13:41:46.377Z,25.80
2018-05-13T13:44:13.903Z,25.94
2018-05-13T13:46:40.857Z,26.40
2018-05-13T13:49:07.463Z,25.25
2018-05-13T13:51:34.107Z,25.35
2018-05-13T13:54:00.834Z,25.45
2018-05-13T13:56:31.827Z,25.11
2018-05-13T13:58:58.656Z,25.71
2018-05-13T14:01:25.399Z,25.27
2018-05-13T14:03:53.295Z,25.43
2018-05-13T14:06:20.503Z,25.48
2018-05-13T14:08:46.948Z,24.99
2018-05-13T14:11:13.837Z,26.06
2018-05-13T14:13:40.656Z,25.50
2018-05-13T14:16:09.935Z,25.25
2018-05-13T14:18:36.687Z,25.28
2018-05-13T14:21:03.229Z,25.49
2018-05-13T14:23:30.005Z,25.56
2018-05-13T14:26:01.846Z,25.04
2018-05-13T14:28:28.578Z,25.24
2018-05-13T14:30:55.282Z,25.23
2018-05-13T14:33:22.410Z,25.24
2018-05-13T14:35:52.663Z,25.07
2018-05-13T14:38:19.356Z,24.66
2018-05-13T14:40:46.569Z,25.15
2018-05-13T14:43:13.679Z,25.52
2018-05-13T14:45:40.809Z,24.80
2018-05-13T14:48:07.759Z,25.26
2018-05-13T14:50:34.334Z,24.67
2018-05-13T14:53:01.394Z,23.87
2018-05-13T14:55:28.398Z,24.07
2018-05-13T14:57:55.134Z,24.65
2018-05-13T15:00:21.969Z,24.06
2018-05-13T15:03:03.531Z,24.99
2018-05-13T15:05:38.164Z,25.18
2018-05-13T15:08:05.283Z,25.20
2018-05-13T15:10:31.809Z,24.64
2018-05-13T15:12:58.375Z,25.11
2018-05-13T15:15:28.646Z,25.17
2018-05-13T15:17:55.360Z,24.01
2018-05-13T15:20:22.044Z,25.02
2018-05-13T15:22:49.062Z,25.33
2018-05-13T15:25:16.037Z,25.25
2018-05-13T15:27:42.782Z,25.24
2018-05-13T15:30:09.420Z,25.70
2018-05-13T15:32:36.330Z,24.99
2018-05-13T15:35:02.886Z,25.02
2018-05-13T15:37:36.537Z,24.04
2018-05-13T15:40:03.158Z,24.88
2018-05-13T15:42:29.843Z,24.97
2018-05-13T15:44:56.702Z,28.60
2018-05-13T15:47:27.427Z,28.16
2018-05-13T15:49:54.035Z,25.32
2018-05-13T15:52:20.855Z,28.97
2018-05-13T15:54:47.574Z,27.43
2018-05-13T15:57:21.402Z,29.58
2018-05-13T15:59:48.113Z,28.41
2018-05-13T16:02:14.856Z,24.68
2018-05-13T16:04:41.510Z,26.97
2018-05-13T16:07:11.985Z,27.52
2018-05-13T16:09:38.657Z,25.18
2018-05-13T16:12:05.645Z,25.73
2018-05-13T16:14:32.282Z,24.62
2018-05-13T16:17:02.684Z,24.20
2018-05-13T16:19:29.396Z,22.68
2018-05-13T16:21:56.036Z,23.63
2018-05-13T16:24:22.717Z,25.49
2018-05-13T16:26:50.503Z,26.81
2018-05-13T16:29:18.227Z,26.24
2018-05-13T16:31:44.860Z,25.62
2018-05-13T16:34:11.509Z,24.99
2018-05-13T16:36:48.684Z,24.08
2018-05-13T16:39:15.449Z,23.32
2018-05-13T16:41:42.298Z,22.28
2018-05-13T16:44:08.890Z,21.38
2018-05-13T16:46:38.695Z,21.15
2018-05-13T16:49:05.345Z,21.25
2018-05-13T16:51:32.083Z,20.99
2018-05-13T16:53:58.746Z,21.08
2018-05-13T16:56:31.835Z,20.94
2018-05-13T16:58:58.560Z,20.97
2018-05-13T17:01:25.238Z,20.29
2018-05-13T17:03:51.868Z,20.50
2018-05-13T17:06:22.004Z,20.40
2018-05-13T17:08:48.617Z,20.13
2018-05-13T17:11:15.192Z,20.03
2018-05-13T17:13:41.978Z,20.03
2018-05-13T17:16:08.714Z,19.99
2018-05-13T17:18:35.258Z,19.75
2018-05-13T17:21:01.913Z,19.46
2018-05-13T17:23:28.497Z,19.59
2018-05-13T17:25:59.986Z,19.45
2018-05-13T17:28:26.641Z,19.53
2018-05-13T17:30:53.150Z,19.46
2018-05-13T17:33:19.835Z,19.42
2018-05-13T17:35:46.457Z,19.27
2018-05-13T17:38:13.033Z,19.13
2018-05-13T17:40:39.733Z,19.17
2018-05-13T17:43:06.427Z,19.02
2018-05-13T17:45:38.202Z,19.02
2018-05-13T17:48:04.799Z,18.94
2018-05-13T17:50:31.405Z,18.95
2018-05-13T17:52:57.980Z,18.91
2018-05-13T17:55:24.712Z,18.73
2018-05-13T17:57:51.348Z,18.70
2018-05-13T18:00:18.010Z,18.67
2018-05-13T18:05:35.024Z,18.53
2018-05-13T18:08:02.370Z,18.51
2018-05-13T18:10:28.962Z,18.74
2018-05-13T18:12:55.481Z,18.48
2018-05-13T18:15:23.100Z,18.36
2018-05-13T18:17:49.757Z,18.19
2018-05-13T18:20:16.502Z,18.55
2018-05-13T18:22:43.101Z,18.67
2018-05-13T18:25:10.877Z,18.37
2018-05-13T18:27:37.503Z,18.25
2018-05-13T18:30:04.129Z,18.46
2018-05-13T18:32:30.722Z,18.23
2018-05-13T18:34:58.112Z,18.41
2018-05-13T18:37:24.830Z,18.16
2018-05-13T18:39:52.390Z,18.39
2018-05-13T18:42:18.895Z,18.05
2018-05-13T18:44:45.659Z,17.74
2018-05-13T18:47:12.243Z,17.41
2018-05-13T18:49:38.834Z,17.22
2018-05-13T18:52:05.330Z,17.03
2018-05-13T18:54:31.884Z,16.93
2018-05-13T18:57:02.554Z,17.18
2018-05-13T18:59:29.203Z,16.69
2018-05-13T19:01:55.772Z,16.84
2018-05-13T19:04:23.200Z,17.11
2018-05-13T19:06:50.909Z,17.01
2018-05-13T19:09:17.466Z,16.96
2018-05-13T19:11:43.994Z,16.57
2018-05-13T19:14:10.574Z,16.51
2018-05-13T19:16:40.829Z,16.25
2018-05-13T19:19:07.378Z,16.72
2018-05-13T19:21:33.906Z,16.51
2018-05-13T19:24:00.558Z,16.64
2018-05-13T19:26:27.303Z,16.82
2018-05-13T19:28:54.000Z,16.95
2018-05-13T19:31:20.491Z,16.58
2018-05-13T19:33:46.902Z,16.65
2018-05-13T19:36:13.633Z,16.74
2018-05-13T19:38:40.535Z,16.85
2018-05-13T19:41:07.202Z,16.44
2018-05-13T19:43:33.815Z,16.69
2018-05-13T19:46:03.877Z,16.71
2018-05-13T19:48:30.454Z,16.27
2018-05-13T19:50:57.063Z,16.16
2018-05-13T19:53:23.733Z,16.54
2018-05-13T19:55:53.343Z,16.77
2018-05-13T19:58:19.945Z,16.94
2018-05-13T20:00:46.628Z,16.96
2018-05-13T20:03:13.435Z,16.87
2018-05-13T20:05:39.955Z,16.54
2018-05-13T20:08:06.541Z,16.43
2018-05-13T20:10:33.056Z,15.80
2018-05-13T20:12:59.641Z,15.88
2018-05-13T20:15:29.380Z,16.05
2018-05-13T20:17:55.916Z,16.41
2018-05-13T20:20:22.632Z,16.53
2018-05-13T20:23:01.427Z,16.24
2018-05-13T20:25:28.405Z,16.23
2018-05-13T20:27:56.167Z,16.07
2018-05-13T20:30:22.834Z,16.04
2018-05-13T20:32:49.428Z,16.07
2018-05-13T20:35:17.423Z,16.16
2018-05-13T20:37:44.031Z,16.48
2018-05-13T20:40:10.692Z,16.56
2018-05-13T20:42:37.396Z,16.64
2018-05-13T20:45:05.052Z,16.83
2018-05-13T20:47:31.676Z,17.08
2018-05-13T20:49:58.312Z,17.03
2018-05-13T20:52:24.781Z,16.94
2018-05-13T20:54:52.443Z,16.75
2018-05-13T20:57:19.033Z,17.04
2018-05-13T20:59:45.668Z,17.26
2018-05-13T21:02:12.247Z,17.15
2018-05-13T21:04:38.915Z,17.20
2018-05-13T21:07:05.562Z,17.22
2018-05-13T21:09:32.196Z,17.17
2018-05-13T21:11:58.751Z,17.22
2018-05-13T21:14:25.176Z,16.74
2018-05-13T21:16:52.324Z,16.90
2018-05-13T21:19:19.165Z,17.09
2018-05-13T21:21:46.067Z,16.95
2018-05-13T21:24:12.634Z,17.07
2018-05-13T21:26:40.396Z,16.75
2018-05-13T21:29:07.028Z,16.81
2018-05-13T21:31:33.587Z,16.60
2018-05-13T21:34:00.166Z,16.28
2018-05-13T21:36:26.923Z,16.37
2018-05-13T21:38:53.485Z,15.77
2018-05-13T21:41:20.084Z,15.65
2018-05-13T21:43:46.594Z,15.37
2018-05-13T21:46:13.722Z,14.96
2018-05-13T21:48:40.216Z,15.16
2018-05-13T21:51:06.781Z,15.24
2018-05-13T21:53:33.317Z,15.12
2018-05-13T21:56:02.900Z,15.14
2018-05-13T21:58:29.978Z,15.06
2018-05-13T22:00:56.622Z,14.65
2018-05-13T22:03:23.163Z,14.72
2018-05-13T22:05:49.734Z,14.83
2018-05-13T22:08:16.485Z,15.11
2018-05-13T22:10:43.540Z,14.99
2018-05-13T22:13:10.189Z,15.04
2018-05-13T22:15:37.588Z,15.33
2018-05-13T22:18:04.373Z,15.04
2018-05-13T22:20:30.891Z,15.18
2018-05-13T22:22:57.632Z,14.79
2018-05-13T22:25:24.195Z,15.05
2018-05-13T22:27:50.751Z,15.30
2018-05-13T22:30:17.371Z,15.56
2018-05-13T22:32:44.576Z,15.65
2018-05-13T22:35:12.638Z,15.22
2018-05-13T22:37:39.317Z,15.25
2018-05-13T22:40:05.958Z,15.38
2018-05-13T22:42:32.516Z,15.06
2018-05-13T22:44:59.314Z,14.98
2018-05-13T22:47:26.000Z,15.31
2018-05-13T22:49:52.508Z,15.32
2018-05-13T22:52:19.202Z,15.15
2018-05-13T22:54:45.541Z,15.22
2018-05-13T22:57:12.124Z,14.99
2018-05-13T22:59:39.020Z,14.98
2018-05-13T23:02:05.587Z,14.88
2018-05-13T23:04:32.343Z,15.19
2018-05-13T23:06:58.973Z,15.19
2018-05-13T23:09:25.524Z,15.41
2018-05-13T23:11:52.153Z,15.67
2018-05-13T23:14:19.832Z,15.71
2018-05-13T23:16:46.496Z,15.69
2018-05-13T23:19:12.973Z,15.74
2018-05-13T23:21:39.522Z,15.93
2018-05-13T23:24:09.708Z,16.18
2018-05-13T23:26:36.332Z,16.29
2018-05-13T23:29:02.877Z,16.06
2018-05-13T23:31:29.554Z,15.84
2018-05-13T23:33:56.673Z,16.07
2018-05-13T23:36:23.373Z,16.23
2018-05-13T23:38:49.973Z,16.41
2018-05-13T23:41:16.642Z,16.06
2018-05-13T23:43:43.297Z,15.89
2018-05-13T23:46:10.461Z,16.15
2018-05-13T23:48:37.637Z,16.20
2018-05-13T23:51:04.344Z,16.25
2018-05-13T23:53:31.020Z,16.01
2018-05-13T23:55:57.991Z,16.20
2018-05-13T23:58:25.446Z,16.20
